Airfield :
LOGIN :

Register | Disclaimer

   EN    FR    IT 

 










Legend :    VFR   Marginal VFR   IFR   Intensive IFR   Very Intensive IFR
Visi :
Ceiling :
>= 8 km
>= 3000ft
5 to 8 km
1000 to 3000 ft
1500m to 5 km
500 to 1000 ft
800 to 1500m
200 to 500 ft
< 800m
< 200 ft
Symbols :   Thunderstorms  Fog  Heavy snow  Heavy precipitations  Wind > 20 kt
SIGMETs :     Misc.  Thunderstorms  Icing  Turbulence  Mountain Waves  Volcanic Ashes







- Airport Elevation : 1768 ft


LEHC - Huesca Pirineos

CURRENT METAR :
  • 170700Z VRB01KT CAVOK 20/09 Q1018

EXPIRED METARs :
  • 170630Z AUTO VRB01KT 9999 NCD 19/10 Q1018
  • 170600Z AUTO VRB01KT 9999 NCD 17/10 Q1018
  • 170530Z AUTO 00000KT 9999 NCD 15/09 Q1018
  • 170500Z AUTO 00000KT 9999 NCD 14/09 Q1018
  • 170430Z AUTO 00000KT 9999 NCD 14/09 Q1018

TAF TAF LEHC
Valid from the 17 at 03:00 until the 18 at 03:00 UTC


170200Z 1703/1803 11008KT 9999 FEW060 TX33/1714Z TN16/1705Z
TEMPO 1704/1708 VRB03KT
BECMG 1708/1710 15005KT
BECMG 1718/1720 11014KT
No reported NOTAMs for that airfield.
1 SIGMET reported for the Madrid FIR (LECM) :
 
Severe turbulence
LECM SIGMET 1 VALID 170600/171000 LEVA
LECM MADRID UIR SEV TURB FCST WI N4315 W00607 - N3912 W00111 - N4130 W00029 - N4306 W00209 - N4315 W00607 FL280/350 MOV NE WKN=



MET'MAP, your aeronautical weather chart ! - Copyright ORBIFLY December 2007 - Disclaimer

ORBIFLY MET'MAP TEAM :

Programming & Development : Alexandra Zaïnal
Concept & Development : Baudouin d'Aumeries
Co-Development & Prog : Marc-Olivier Méhu
Technical & hardware support : Manuel Goepfert

Contact : metmap@orbifly.com




SOURCES & CREDITS :

   NOAA